Time;durP1;ratioP1;P1;durP2;ratioP2;P2;SDS_P1;SDS_P2;PMS_P1;PMS_P2;Temp;Humidity;BMP_temperature;BMP_pressure;BME280_temperature;BME280_humidity;BME280_pressure;Samples;Min_cycle;Max_cycle;Signal;HPM_P1;HPM_P2
2023/08/14 00:01:05;;;;;;;3.50;1.75;;;;;;;;;;5055779;28;20021;-88
2023/08/14 00:03:31;;;;;;;3.38;1.55;;;;;;;;;;5058523;28;20423;-88
2023/08/14 00:05:56;;;;;;;2.97;1.63;;;;;;;;;;5058775;28;20040;-88
2023/08/14 00:08:22;;;;;;;5.28;1.80;;;;;;;;;;5060132;28;20032;-89
2023/08/14 00:10:47;;;;;;;2.45;1.52;;;;;;;;;;5058842;28;20041;-88
2023/08/14 00:13:12;;;;;;;2.38;1.60;;;;;;;;;;5057639;28;20037;-90
2023/08/14 00:15:38;;;;;;;4.30;1.70;;;;;;;;;;5063525;28;20029;-88
2023/08/14 00:18:07;;;;;;;3.50;1.65;;;;;;;;;;5062835;28;20083;-88
2023/08/14 00:20:33;;;;;;;3.95;1.88;;;;;;;;;;5055217;28;20037;-88
2023/08/14 00:22:58;;;;;;;3.00;1.92;;;;;;;;;;5053753;28;20128;-88
2023/08/14 00:25:24;;;;;;;3.35;1.55;;;;;;;;;;5054085;28;20052;-88
2023/08/14 00:27:49;;;;;;;7.35;1.88;;;;;;;;;;5053291;28;20025;-87
2023/08/14 00:30:15;;;;;;;3.15;1.90;;;;;;;;;;5053209;28;20078;-88
2023/08/14 00:32:40;;;;;;;3.30;1.98;;;;;;;;;;5053299;28;20032;-88
2023/08/14 00:35:06;;;;;;;2.67;1.50;;;;;;;;;;5054671;28;20033;-88
2023/08/14 00:37:41;;;;;;;4.53;1.73;;;;;;;;;;5053509;28;20036;-88
2023/08/14 00:40:09;;;;;;;3.17;1.70;;;;;;;;;;5055031;28;20040;-88
2023/08/14 00:42:35;;;;;;;1.85;1.50;;;;;;;;;;5052881;28;20033;-89
2023/08/14 00:45:01;;;;;;;3.75;1.40;;;;;;;;;;5052543;28;20395;-88
2023/08/14 00:47:26;;;;;;;2.10;1.50;;;;;;;;;;5054119;28;20207;-90
2023/08/14 00:49:52;;;;;;;2.95;1.30;;;;;;;;;;5052210;28;20063;-88
2023/08/14 00:52:18;;;;;;;3.10;1.50;;;;;;;;;;5053074;28;20488;-89
2023/08/14 00:54:44;;;;;;;4.60;1.60;;;;;;;;;;5054625;28;20091;-88
2023/08/14 00:57:10;;;;;;;1.65;1.23;;;;;;;;;;5053642;28;20388;-88
2023/08/14 00:59:35;;;;;;;2.47;1.20;;;;;;;;;;5045900;28;20036;-89
2023/08/14 01:02:01;;;;;;;2.22;1.10;;;;;;;;;;5054124;28;20600;-88
2023/08/14 01:04:26;;;;;;;1.75;1.10;;;;;;;;;;5055278;28;20685;-88
2023/08/14 01:06:52;;;;;;;1.38;1.10;;;;;;;;;;5066592;28;20035;-88
2023/08/14 01:09:17;;;;;;;2.60;1.15;;;;;;;;;;5052741;28;20434;-89
2023/08/14 01:12:30;;;;;;;2.35;1.27;;;;;;;;;;5048057;28;20492;-89
2023/08/14 01:15:03;;;;;;;1.88;1.15;;;;;;;;;;5049982;28;20037;-89
2023/08/14 01:17:33;;;;;;;1.95;1.20;;;;;;;;;;5049105;28;20037;-88
2023/08/14 01:20:00;;;;;;;3.15;1.20;;;;;;;;;;5052319;28;20396;-88
2023/08/14 01:22:43;;;;;;;3.10;1.20;;;;;;;;;;5053444;28;20036;-88
2023/08/14 01:25:20;;;;;;;1.10;1.00;;;;;;;;;;5053216;28;20455;-88
2023/08/14 01:27:48;;;;;;;3.22;1.05;;;;;;;;;;5054216;28;20551;-90
2023/08/14 01:30:14;;;;;;;3.45;1.13;;;;;;;;;;5055980;28;20148;-90
2023/08/14 01:32:39;;;;;;;3.72;1.00;;;;;;;;;;5051143;28;20107;-88
2023/08/14 01:35:06;;;;;;;2.25;1.20;;;;;;;;;;5052160;28;20025;-88
2023/08/14 01:37:34;;;;;;;3.38;1.20;;;;;;;;;;5052210;28;20037;-88
2023/08/14 01:40:08;;;;;;;3.22;1.10;;;;;;;;;;5052819;28;20053;-89
2023/08/14 01:42:36;;;;;;;1.25;0.95;;;;;;;;;;5050965;28;20087;-88
2023/08/14 01:45:09;;;;;;;1.65;1.20;;;;;;;;;;5051785;28;20542;-90
2023/08/14 01:47:35;;;;;;;1.97;1.10;;;;;;;;;;5025087;28;20033;-89
2023/08/14 01:50:01;;;;;;;2.13;1.10;;;;;;;;;;5052830;28;20108;-90
2023/08/14 01:52:28;;;;;;;1.73;1.05;;;;;;;;;;5052693;28;20029;-88
2023/08/14 01:55:00;;;;;;;1.08;0.90;;;;;;;;;;5034298;28;20119;-89
2023/08/14 01:57:26;;;;;;;2.22;1.10;;;;;;;;;;5043472;28;20028;-89
2023/08/14 01:59:52;;;;;;;2.58;1.10;;;;;;;;;;5050491;28;20517;-89
2023/08/14 02:02:18;;;;;;;2.65;1.10;;;;;;;;;;5037356;28;20030;-88
2023/08/14 02:04:44;;;;;;;1.88;1.13;;;;;;;;;;5053407;28;20132;-88
2023/08/14 02:07:09;;;;;;;1.10;0.90;;;;;;;;;;5034361;28;20764;-89
2023/08/14 02:09:35;;;;;;;1.40;1.00;;;;;;;;;;5050921;28;20536;-89
2023/08/14 02:12:01;;;;;;;1.38;1.08;;;;;;;;;;5051030;28;20028;-90
2023/08/14 02:14:27;;;;;;;1.98;1.10;;;;;;;;;;5051797;28;20083;-90
2023/08/14 02:16:52;;;;;;;1.90;1.20;;;;;;;;;;5034474;28;20029;-89
2023/08/14 02:19:18;;;;;;;1.95;0.98;;;;;;;;;;5052252;28;20112;-88
2023/08/14 02:21:43;;;;;;;2.17;1.10;;;;;;;;;;5037013;28;20032;-89
2023/08/14 02:24:09;;;;;;;3.35;1.20;;;;;;;;;;5050555;28;20029;-89
2023/08/14 02:26:35;;;;;;;5.88;1.33;;;;;;;;;;5051881;28;20057;-89
2023/08/14 02:29:01;;;;;;;2.10;1.10;;;;;;;;;;5050524;28;20574;-88
2023/08/14 02:31:26;;;;;;;4.28;1.23;;;;;;;;;;5052128;28;20111;-89
2023/08/14 02:33:59;;;;;;;1.88;1.10;;;;;;;;;;5051526;28;20430;-89
2023/08/14 02:36:26;;;;;;;1.77;1.10;;;;;;;;;;5050580;28;20045;-88
2023/08/14 02:38:52;;;;;;;1.55;1.10;;;;;;;;;;5050198;28;20461;-91
2023/08/14 02:41:18;;;;;;;1.50;1.08;;;;;;;;;;5056758;28;20098;-89
2023/08/14 02:43:43;;;;;;;2.33;1.13;;;;;;;;;;5050450;28;20033;-91
2023/08/14 02:46:09;;;;;;;1.80;1.27;;;;;;;;;;5049791;28;20024;-89
2023/08/14 02:48:34;;;;;;;1.48;1.13;;;;;;;;;;5051547;28;20051;-89
2023/08/14 02:51:00;;;;;;;2.50;1.40;;;;;;;;;;5052830;28;20385;-90
2023/08/14 02:53:26;;;;;;;2.05;1.20;;;;;;;;;;5036954;28;20032;-91
2023/08/14 02:55:52;;;;;;;3.08;1.30;;;;;;;;;;5054032;28;20379;-89
2023/08/14 02:58:18;;;;;;;3.58;1.35;;;;;;;;;;5053238;28;20037;-89
2023/08/14 03:00:47;;;;;;;2.95;1.20;;;;;;;;;;5053730;28;20052;-89
2023/08/14 03:03:13;;;;;;;4.43;1.40;;;;;;;;;;5053292;28;20029;-89
2023/08/14 03:05:39;;;;;;;1.77;1.25;;;;;;;;;;5065391;28;20044;-89
2023/08/14 03:08:05;;;;;;;2.25;1.10;;;;;;;;;;5051070;28;20029;-89
2023/08/14 03:10:31;;;;;;;2.15;1.27;;;;;;;;;;5054981;28;20526;-89
2023/08/14 03:12:57;;;;;;;1.65;1.20;;;;;;;;;;5055185;28;20035;-89
2023/08/14 03:15:23;;;;;;;2.10;1.40;;;;;;;;;;5057664;28;20033;-90
2023/08/14 03:17:49;;;;;;;3.00;1.30;;;;;;;;;;5061268;28;20163;-90
2023/08/14 03:20:15;;;;;;;3.03;1.40;;;;;;;;;;5053222;28;20131;-88
2023/08/14 03:22:40;;;;;;;2.17;1.50;;;;;;;;;;5054489;28;20025;-88
2023/08/14 03:25:06;;;;;;;1.92;1.27;;;;;;;;;;5053255;28;20078;-89
2023/08/14 03:27:31;;;;;;;2.92;1.30;;;;;;;;;;5053411;28;20009;-88
2023/08/14 03:29:58;;;;;;;3.42;1.38;;;;;;;;;;5053306;28;20024;-88
2023/08/14 03:32:23;;;;;;;2.30;1.17;;;;;;;;;;5053217;28;20029;-91
2023/08/14 03:34:49;;;;;;;3.28;1.30;;;;;;;;;;5054464;28;20878;-89
2023/08/14 03:37:15;;;;;;;3.05;1.35;;;;;;;;;;5054509;28;20023;-88
2023/08/14 03:39:40;;;;;;;3.72;1.40;;;;;;;;;;5037016;28;20025;-88
2023/08/14 03:42:06;;;;;;;3.90;1.30;;;;;;;;;;5054257;28;20502;-88
2023/08/14 03:44:31;;;;;;;2.97;1.40;;;;;;;;;;5053674;28;20389;-90
2023/08/14 03:46:59;;;;;;;1.88;1.20;;;;;;;;;;5054473;28;20107;-88
2023/08/14 03:49:24;;;;;;;1.90;1.30;;;;;;;;;;5053725;28;20128;-88
2023/08/14 03:51:50;;;;;;;3.42;1.50;;;;;;;;;;5054576;28;20033;-88
2023/08/14 03:54:15;;;;;;;1.92;1.50;;;;;;;;;;5059080;28;20029;-88
2023/08/14 03:56:41;;;;;;;2.42;1.38;;;;;;;;;;5053587;28;20021;-88
2023/08/14 03:59:07;;;;;;;1.75;1.35;;;;;;;;;;5050458;28;20555;-87
2023/08/14 04:01:34;;;;;;;2.25;1.40;;;;;;;;;;5053400;28;20027;-88
2023/08/14 04:04:00;;;;;;;1.90;1.35;;;;;;;;;;5036083;28;20032;-89
2023/08/14 04:06:26;;;;;;;3.58;1.70;;;;;;;;;;5033170;28;20033;-90
2023/08/14 04:08:52;;;;;;;4.70;1.63;;;;;;;;;;5053381;28;20031;-88
2023/08/14 04:11:19;;;;;;;3.05;2.10;;;;;;;;;;5052766;28;20032;-88
2023/08/14 04:13:44;;;;;;;3.10;1.90;;;;;;;;;;5035596;28;20029;-88
2023/08/14 04:16:10;;;;;;;2.40;1.70;;;;;;;;;;5052461;28;20059;-88
2023/08/14 04:18:36;;;;;;;3.83;1.50;;;;;;;;;;5051307;28;20407;-88
2023/08/14 04:21:03;;;;;;;3.25;1.35;;;;;;;;;;5053803;28;20033;-88
2023/08/14 04:23:30;;;;;;;3.50;1.85;;;;;;;;;;5055542;28;20028;-88
2023/08/14 04:25:56;;;;;;;4.18;2.00;;;;;;;;;;5051427;28;20112;-88
2023/08/14 04:28:21;;;;;;;5.82;1.90;;;;;;;;;;5064439;28;20128;-89
2023/08/14 04:30:48;;;;;;;2.97;1.80;;;;;;;;;;5052345;28;20043;-88
2023/08/14 04:33:13;;;;;;;4.43;1.80;;;;;;;;;;5051194;28;20033;-88
2023/08/14 04:35:41;;;;;;;3.97;1.60;;;;;;;;;;5056031;28;20021;-88
2023/08/14 04:38:07;;;;;;;3.63;1.50;;;;;;;;;;5040700;28;20036;-89
2023/08/14 04:40:36;;;;;;;4.35;1.98;;;;;;;;;;5032561;28;20455;-88
2023/08/14 04:43:02;;;;;;;3.85;1.60;;;;;;;;;;5048395;28;20484;-88
2023/08/14 04:45:28;;;;;;;3.45;1.52;;;;;;;;;;5050505;28;20032;-89
2023/08/14 04:47:53;;;;;;;3.45;1.58;;;;;;;;;;5051790;28;20103;-89
2023/08/14 04:50:19;;;;;;;3.25;1.60;;;;;;;;;;5050164;28;20037;-90
2023/08/14 04:52:45;;;;;;;4.45;2.00;;;;;;;;;;5050507;28;20028;-88
2023/08/14 04:55:10;;;;;;;4.80;1.80;;;;;;;;;;5050570;28;20120;-88
2023/08/14 04:57:38;;;;;;;2.83;1.70;;;;;;;;;;5050346;28;20563;-88
2023/08/14 05:00:06;;;;;;;3.22;1.52;;;;;;;;;;5039155;28;20484;-88
2023/08/14 05:02:33;;;;;;;2.92;1.40;;;;;;;;;;5049331;28;20045;-90
2023/08/14 05:04:59;;;;;;;3.78;1.60;;;;;;;;;;5050655;28;20025;-88
2023/08/14 05:07:25;;;;;;;1.48;1.30;;;;;;;;;;5049849;28;20434;-88
2023/08/14 05:09:51;;;;;;;2.55;1.60;;;;;;;;;;5051272;28;20036;-88
2023/08/14 05:12:16;;;;;;;3.05;1.50;;;;;;;;;;5050020;28;20545;-88
2023/08/14 05:14:42;;;;;;;2.97;1.60;;;;;;;;;;5049811;28;20047;-89
2023/08/14 05:17:07;;;;;;;2.50;1.50;;;;;;;;;;5049587;28;20033;-88
2023/08/14 05:19:33;;;;;;;3.30;1.50;;;;;;;;;;5050408;28;20031;-88
2023/08/14 05:21:58;;;;;;;3.15;1.77;;;;;;;;;;5059049;28;20159;-88
2023/08/14 05:24:24;;;;;;;4.05;1.73;;;;;;;;;;5051450;28;20028;-90
2023/08/14 05:26:49;;;;;;;2.00;1.73;;;;;;;;;;5051261;28;20104;-88
2023/08/14 05:29:15;;;;;;;1.40;1.30;;;;;;;;;;5051152;28;20128;-88
2023/08/14 05:31:40;;;;;;;1.70;1.40;;;;;;;;;;5051378;28;20029;-89
2023/08/14 05:34:06;;;;;;;3.30;1.60;;;;;;;;;;5051222;28;20082;-88
2023/08/14 05:36:31;;;;;;;2.40;1.50;;;;;;;;;;5050921;28;20052;-88
2023/08/14 05:38:57;;;;;;;3.88;1.38;;;;;;;;;;5051133;28;20522;-88
2023/08/14 05:41:22;;;;;;;2.42;1.50;;;;;;;;;;5051303;28;20033;-89
2023/08/14 05:43:48;;;;;;;2.40;1.50;;;;;;;;;;5051201;28;20115;-87
2023/08/14 05:46:14;;;;;;;2.40;1.38;;;;;;;;;;5051263;28;20037;-88
2023/08/14 05:48:40;;;;;;;3.30;1.55;;;;;;;;;;5050935;28;20044;-88
2023/08/14 05:51:05;;;;;;;3.00;1.40;;;;;;;;;;5047497;28;20035;-88
2023/08/14 05:53:31;;;;;;;2.97;1.60;;;;;;;;;;5051197;28;20025;-87
2023/08/14 05:55:56;;;;;;;4.25;1.33;;;;;;;;;;5050892;28;20040;-88
2023/08/14 05:58:22;;;;;;;3.33;1.70;;;;;;;;;;5050723;28;20064;-88
2023/08/14 06:00:47;;;;;;;4.75;1.60;;;;;;;;;;5051151;28;20036;-86
2023/08/14 06:03:13;;;;;;;2.67;1.45;;;;;;;;;;5050742;28;20036;-88
2023/08/14 06:05:38;;;;;;;2.58;1.40;;;;;;;;;;5045499;28;20037;-88
2023/08/14 06:08:04;;;;;;;1.90;1.38;;;;;;;;;;5051885;28;20507;-88
2023/08/14 06:10:30;;;;;;;4.68;1.60;;;;;;;;;;5052080;28;20033;-88
2023/08/14 06:12:55;;;;;;;2.35;1.45;;;;;;;;;;5051470;28;20033;-91
2023/08/14 06:15:21;;;;;;;3.17;1.40;;;;;;;;;;5052646;28;20048;-88
2023/08/14 06:17:49;;;;;;;4.60;1.60;;;;;;;;;;5051106;28;20025;-87
2023/08/14 06:20:15;;;;;;;4.25;1.60;;;;;;;;;;5052029;28;20033;-87
2023/08/14 06:22:46;;;;;;;3.72;1.50;;;;;;;;;;5051231;28;20035;-87
2023/08/14 06:25:12;;;;;;;3.88;1.73;;;;;;;;;;5064504;28;20063;-94
2023/08/14 06:27:38;;;;;;;3.75;1.58;;;;;;;;;;5063605;28;20025;-90
2023/08/14 06:30:04;;;;;;;2.30;1.60;;;;;;;;;;5053479;28;20491;-88
2023/08/14 06:32:30;;;;;;;2.10;1.48;;;;;;;;;;5052251;28;20111;-89
2023/08/14 06:34:55;;;;;;;3.83;1.70;;;;;;;;;;5055778;28;20484;-88
2023/08/14 06:37:21;;;;;;;2.35;1.60;;;;;;;;;;5059160;28;20048;-89
2023/08/14 06:39:47;;;;;;;3.15;1.60;;;;;;;;;;5054189;28;20032;-89
2023/08/14 06:42:15;;;;;;;1.85;1.48;;;;;;;;;;5054114;28;20029;-90
2023/08/14 06:44:42;;;;;;;4.65;1.40;;;;;;;;;;5053902;28;20029;-89
2023/08/14 06:47:08;;;;;;;2.10;1.48;;;;;;;;;;5053883;28;20515;-89
2023/08/14 06:49:33;;;;;;;2.30;1.60;;;;;;;;;;5053628;28;20044;-89
2023/08/14 06:51:59;;;;;;;2.45;1.60;;;;;;;;;;5053516;28;20047;-89
2023/08/14 06:54:24;;;;;;;2.92;1.40;;;;;;;;;;5052397;28;20079;-91
2023/08/14 06:56:50;;;;;;;3.70;1.58;;;;;;;;;;5053977;28;20498;-89
2023/08/14 06:59:15;;;;;;;3.33;1.50;;;;;;;;;;5054690;28;20032;-89
2023/08/14 07:01:41;;;;;;;4.05;1.58;;;;;;;;;;5054000;28;20040;-90
2023/08/14 07:04:07;;;;;;;3.78;1.60;;;;;;;;;;5054040;28;20491;-89
2023/08/14 07:06:32;;;;;;;2.05;1.30;;;;;;;;;;5052309;28;20033;-90
2023/08/14 07:08:58;;;;;;;1.73;1.30;;;;;;;;;;5049384;28;20124;-91
2023/08/14 07:11:23;;;;;;;2.10;1.40;;;;;;;;;;5053779;28;20115;-89
2023/08/14 07:13:49;;;;;;;3.10;1.65;;;;;;;;;;5062388;28;20066;-87
2023/08/14 07:16:14;;;;;;;1.45;1.35;;;;;;;;;;5056891;28;20072;-83
2023/08/14 07:18:40;;;;;;;2.75;1.60;;;;;;;;;;5054124;28;20041;-83
2023/08/14 07:21:05;;;;;;;2.78;1.50;;;;;;;;;;5053314;28;20082;-87
2023/08/14 07:23:32;;;;;;;2.00;1.50;;;;;;;;;;5053549;28;20040;-89
2023/08/14 07:25:59;;;;;;;2.38;1.55;;;;;;;;;;5052944;28;20063;-88
2023/08/14 07:28:26;;;;;;;3.22;1.55;;;;;;;;;;5050851;28;20036;-88
2023/08/14 07:30:51;;;;;;;2.50;1.60;;;;;;;;;;5053244;28;20021;-87
2023/08/14 07:33:17;;;;;;;3.03;1.60;;;;;;;;;;5050878;28;20064;-88
2023/08/14 07:35:42;;;;;;;3.85;1.60;;;;;;;;;;5052058;28;20106;-87
2023/08/14 07:38:08;;;;;;;2.30;1.45;;;;;;;;;;5060371;28;20112;-87
2023/08/14 07:40:34;;;;;;;3.28;1.55;;;;;;;;;;5054372;28;20539;-87
2023/08/14 07:42:59;;;;;;;3.05;1.60;;;;;;;;;;5055205;28;20029;-85
2023/08/14 07:45:25;;;;;;;3.00;1.60;;;;;;;;;;5039011;28;20623;-88
2023/08/14 07:47:50;;;;;;;5.25;1.73;;;;;;;;;;5053554;28;20040;-86
2023/08/14 07:50:16;;;;;;;2.35;1.60;;;;;;;;;;5053436;28;20041;-85
2023/08/14 07:52:41;;;;;;;3.53;1.70;;;;;;;;;;5051919;28;20128;-86
2023/08/14 07:55:07;;;;;;;1.95;1.52;;;;;;;;;;5051899;28;20039;-85
2023/08/14 07:57:33;;;;;;;3.88;1.50;;;;;;;;;;5051333;28;20055;-86
2023/08/14 07:59:58;;;;;;;1.80;1.50;;;;;;;;;;5052671;28;20080;-86
2023/08/14 08:02:24;;;;;;;3.88;1.50;;;;;;;;;;5051552;28;20036;-87
2023/08/14 08:04:50;;;;;;;5.22;1.60;;;;;;;;;;5051458;28;20098;-86
2023/08/14 08:07:15;;;;;;;1.92;1.50;;;;;;;;;;5052952;28;20029;-85
2023/08/14 08:09:41;;;;;;;2.33;1.60;;;;;;;;;;5056053;28;20495;-86
2023/08/14 08:12:07;;;;;;;2.75;1.75;;;;;;;;;;5052442;28;20120;-87
2023/08/14 08:14:34;;;;;;;2.30;1.50;;;;;;;;;;5052146;28;20033;-86
2023/08/14 08:17:00;;;;;;;2.25;1.50;;;;;;;;;;5052450;28;20036;-86
2023/08/14 08:19:26;;;;;;;6.07;1.52;;;;;;;;;;5052876;28;20032;-86
2023/08/14 08:21:51;;;;;;;6.60;1.50;;;;;;;;;;5051415;28;20041;-86
2023/08/14 08:24:17;;;;;;;3.47;1.60;;;;;;;;;;5051034;28;20395;-86
2023/08/14 08:26:43;;;;;;;2.30;1.50;;;;;;;;;;5052508;28;20036;-87
2023/08/14 08:29:08;;;;;;;3.03;1.50;;;;;;;;;;5038623;28;20091;-86
2023/08/14 08:31:34;;;;;;;2.20;1.50;;;;;;;;;;5052818;28;20044;-89
2023/08/14 08:33:59;;;;;;;8.50;1.77;;;;;;;;;;5054787;28;20094;-87
2023/08/14 08:36:25;;;;;;;3.20;1.50;;;;;;;;;;5053436;28;20037;-86
2023/08/14 08:38:50;;;;;;;4.03;1.70;;;;;;;;;;5051838;28;20427;-86
2023/08/14 08:41:32;;;;;;;2.38;1.60;;;;;;;;;;5047773;28;20066;-87
2023/08/14 08:44:11;;;;;;;2.28;1.70;;;;;;;;;;5059379;28;20028;-88
2023/08/14 08:46:45;;;;;;;3.33;1.80;;;;;;;;;;5050829;28;20110;-87
2023/08/14 08:49:11;;;;;;;4.65;1.65;;;;;;;;;;5046930;28;20035;-87
2023/08/14 08:51:39;;;;;;;3.15;1.70;;;;;;;;;;5050257;28;20055;-86
2023/08/14 08:54:05;;;;;;;3.65;1.73;;;;;;;;;;5052063;28;20036;-87
2023/08/14 08:56:31;;;;;;;2.40;1.77;;;;;;;;;;5049761;28;20043;-86
2023/08/14 08:58:58;;;;;;;3.65;1.73;;;;;;;;;;5051229;28;20395;-87
2023/08/14 09:01:24;;;;;;;5.22;1.85;;;;;;;;;;5051145;28;20044;-88
2023/08/14 09:03:49;;;;;;;1.95;1.60;;;;;;;;;;5053574;28;20033;-86
2023/08/14 09:06:15;;;;;;;4.45;1.83;;;;;;;;;;5051497;28;20036;-88
2023/08/14 09:08:40;;;;;;;2.33;1.52;;;;;;;;;;5052102;28;20480;-87
2023/08/14 09:11:06;;;;;;;2.83;1.80;;;;;;;;;;5051036;28;20107;-86
2023/08/14 09:13:31;;;;;;;4.43;1.75;;;;;;;;;;5049709;28;20036;-85
2023/08/14 09:15:57;;;;;;;3.42;1.90;;;;;;;;;;5051415;28;20083;-86
2023/08/14 09:18:23;;;;;;;3.58;1.95;;;;;;;;;;5051526;28;20032;-87
2023/08/14 09:20:48;;;;;;;4.35;1.75;;;;;;;;;;5051330;28;20392;-87
2023/08/14 09:23:15;;;;;;;4.53;1.60;;;;;;;;;;5051745;28;20060;-88
2023/08/14 09:25:41;;;;;;;4.18;2.20;;;;;;;;;;5050785;28;20025;-86
2023/08/14 09:28:08;;;;;;;2.88;1.80;;;;;;;;;;5050877;28;20040;-88
2023/08/14 09:30:36;;;;;;;2.72;1.80;;;;;;;;;;5050887;28;20400;-87
2023/08/14 09:33:12;;;;;;;3.15;1.90;;;;;;;;;;5050774;28;20056;-86
2023/08/14 09:35:38;;;;;;;3.50;1.85;;;;;;;;;;5065082;28;20025;-86
2023/08/14 09:38:04;;;;;;;3.08;1.60;;;;;;;;;;5050949;28;20031;-87
2023/08/14 09:40:31;;;;;;;3.00;2.03;;;;;;;;;;5049562;28;20104;-86
2023/08/14 09:42:57;;;;;;;3.42;1.80;;;;;;;;;;5048224;28;20428;-88
2023/08/14 09:45:25;;;;;;;3.53;1.70;;;;;;;;;;5048676;28;20071;-86
2023/08/14 09:47:51;;;;;;;2.05;1.70;;;;;;;;;;5048832;28;20044;-88
2023/08/14 09:50:19;;;;;;;2.72;1.88;;;;;;;;;;5050766;28;20041;-89
2023/08/14 09:52:45;;;;;;;2.13;1.80;;;;;;;;;;5050608;28;20045;-87
2023/08/14 09:55:13;;;;;;;2.88;1.88;;;;;;;;;;5050525;28;20043;-88
2023/08/14 09:57:39;;;;;;;4.88;2.38;;;;;;;;;;5049201;28;20041;-86
2023/08/14 10:00:05;;;;;;;3.85;2.10;;;;;;;;;;5048748;28;20040;-84
2023/08/14 10:02:32;;;;;;;3.25;1.80;;;;;;;;;;5054423;28;20041;-84
2023/08/14 10:05:00;;;;;;;5.55;2.00;;;;;;;;;;5055364;28;20036;-82
2023/08/14 10:07:26;;;;;;;4.30;1.90;;;;;;;;;;5055072;28;20102;-87
2023/08/14 10:09:55;;;;;;;4.63;1.92;;;;;;;;;;5055563;28;20033;-88
2023/08/14 10:12:23;;;;;;;2.72;1.92;;;;;;;;;;5051942;28;20051;-88
2023/08/14 10:15:16;;;;;;;2.90;2.10;;;;;;;;;;5053364;28;20095;-89
2023/08/14 10:17:44;;;;;;;;;;;;;;;;;;5054288;28;20049;-87
2023/08/14 10:20:11;;;;;;;3.67;1.98;;;;;;;;;;5054386;28;19919;-87
2023/08/14 10:22:39;;;;;;;4.95;2.10;;;;;;;;;;5053351;28;20064;-87
2023/08/14 10:25:06;;;;;;;3.70;1.98;;;;;;;;;;5066799;23;20037;-79
2023/08/14 10:27:32;;;;;;;3.15;1.95;;;;;;;;;;5055183;28;20096;-81
2023/08/14 10:29:59;;;;;;;5.35;2.15;;;;;;;;;;5043680;28;20469;-81
2023/08/14 10:32:25;;;;;;;5.63;1.85;;;;;;;;;;5043296;28;20030;-84
2023/08/14 10:34:51;;;;;;;5.32;2.08;;;;;;;;;;5042480;28;20037;-84
2023/08/14 10:37:25;;;;;;;5.22;2.00;;;;;;;;;;5048258;28;20026;-83
2023/08/14 10:39:51;;;;;;;4.18;2.17;;;;;;;;;;5044705;28;20068;-84
2023/08/14 10:42:16;;;;;;;2.55;1.90;;;;;;;;;;5043702;28;20033;-84
2023/08/14 10:44:43;;;;;;;3.25;2.00;;;;;;;;;;5049066;28;20041;-84
2023/08/14 10:47:12;;;;;;;3.58;1.83;;;;;;;;;;5024319;28;20033;-84
2023/08/14 10:49:45;;;;;;;3.80;2.08;;;;;;;;;;5040744;28;20485;-83
2023/08/14 10:52:15;;;;;;;4.80;2.20;;;;;;;;;;5040915;28;20116;-82
2023/08/14 10:54:44;;;;;;;2.90;1.95;;;;;;;;;;5037342;28;20096;-85
2023/08/14 10:57:12;;;;;;;5.90;1.70;;;;;;;;;;5039146;28;20088;-82
2023/08/14 10:59:39;;;;;;;3.97;1.85;;;;;;;;;;5043197;28;20445;-85
2023/08/14 11:02:10;;;;;;;3.60;1.70;;;;;;;;;;5042709;28;20057;-84
2023/08/14 11:05:01;;;;;;;2.55;1.80;;;;;;;;;;5043141;28;20033;-84
2023/08/14 11:07:32;;;;;;;3.08;1.73;;;;;;;;;;5056245;28;20041;-82
2023/08/14 11:09:58;;;;;;;3.90;1.90;;;;;;;;;;5042568;28;20035;-82
2023/08/14 11:12:25;;;;;;;3.00;1.92;;;;;;;;;;5042248;28;20033;-83
2023/08/14 11:14:51;;;;;;;2.53;1.73;;;;;;;;;;5040747;28;20067;-81
2023/08/14 11:17:16;;;;;;;2.58;1.80;;;;;;;;;;5028891;28;20029;-85
2023/08/14 11:19:42;;;;;;;3.85;1.92;;;;;;;;;;5039924;28;20550;-82
2023/08/14 11:22:08;;;;;;;4.88;1.95;;;;;;;;;;5037759;28;20049;-82
2023/08/14 11:24:34;;;;;;;4.32;2.30;;;;;;;;;;5036569;28;20067;-85
2023/08/14 11:27:00;;;;;;;3.20;2.10;;;;;;;;;;5034542;28;20041;-86
2023/08/14 11:29:26;;;;;;;2.80;1.88;;;;;;;;;;5035657;28;20508;-86
2023/08/14 11:31:52;;;;;;;3.65;2.10;;;;;;;;;;5033857;28;20025;-86
2023/08/14 11:34:18;;;;;;;8.65;2.17;;;;;;;;;;5033193;28;20037;-84
2023/08/14 11:36:57;;;;;;;2.33;1.75;;;;;;;;;;5037043;28;20021;-87
2023/08/14 11:39:23;;;;;;;3.42;1.95;;;;;;;;;;5018767;28;20500;-84
2023/08/14 11:41:49;;;;;;;2.72;1.73;;;;;;;;;;5033232;28;20021;-85
2023/08/14 11:44:14;;;;;;;3.15;2.10;;;;;;;;;;5040377;28;20049;-83
2023/08/14 11:46:40;;;;;;;2.45;1.90;;;;;;;;;;5049277;28;20029;-80
2023/08/14 11:49:05;;;;;;;3.72;1.90;;;;;;;;;;5037704;28;20053;-80
2023/08/14 11:51:31;;;;;;;2.92;1.98;;;;;;;;;;5037728;28;20034;-80
2023/08/14 11:53:59;;;;;;;3.63;2.00;;;;;;;;;;5035948;28;20531;-85
2023/08/14 11:56:24;;;;;;;4.18;1.80;;;;;;;;;;5037002;28;20026;-80
2023/08/14 11:58:50;;;;;;;3.78;2.00;;;;;;;;;;5036033;28;20179;-80
2023/08/14 12:01:15;;;;;;;2.80;2.00;;;;;;;;;;5036751;28;20084;-80
2023/08/14 12:03:41;;;;;;;3.53;1.75;;;;;;;;;;5035043;28;20033;-81
2023/08/14 12:06:07;;;;;;;2.63;1.90;;;;;;;;;;5037708;28;20029;-84
2023/08/14 12:08:32;;;;;;;2.92;1.90;;;;;;;;;;5036991;28;20034;-82
2023/08/14 12:10:58;;;;;;;3.22;1.70;;;;;;;;;;5035828;28;20044;-81
2023/08/14 12:13:23;;;;;;;2.97;1.80;;;;;;;;;;5035518;28;20037;-82
2023/08/14 12:15:49;;;;;;;3.80;2.00;;;;;;;;;;5036663;28;20461;-84
2023/08/14 12:18:22;;;;;;;1.75;1.63;;;;;;;;;;5036340;28;20025;-80
2023/08/14 12:20:54;;;;;;;2.15;1.80;;;;;;;;;;5037186;28;20026;-83
2023/08/14 12:23:23;;;;;;;3.55;1.80;;;;;;;;;;5038541;28;20120;-81
2023/08/14 12:25:52;;;;;;;3.00;1.83;;;;;;;;;;5037510;28;20022;-82
2023/08/14 12:28:21;;;;;;;3.70;1.80;;;;;;;;;;5035732;28;20392;-84
2023/08/14 12:30:49;;;;;;;5.00;1.70;;;;;;;;;;5036249;28;20120;-83
2023/08/14 12:33:15;;;;;;;2.00;1.60;;;;;;;;;;5035871;28;20041;-83
2023/08/14 12:35:40;;;;;;;3.72;1.80;;;;;;;;;;5028473;28;20034;-83
2023/08/14 12:38:06;;;;;;;2.80;1.90;;;;;;;;;;5036167;28;20032;-81
2023/08/14 12:40:31;;;;;;;2.70;1.98;;;;;;;;;;5035315;28;20033;-82
2023/08/14 12:42:57;;;;;;;3.30;1.70;;;;;;;;;;5036686;28;20017;-80
2023/08/14 12:45:23;;;;;;;2.70;1.98;;;;;;;;;;5036882;28;20056;-80
2023/08/14 12:47:48;;;;;;;3.15;2.00;;;;;;;;;;5035589;28;20038;-82
2023/08/14 12:50:14;;;;;;;2.10;1.80;;;;;;;;;;5036437;28;20032;-82
2023/08/14 12:52:39;;;;;;;2.30;2.00;;;;;;;;;;5033075;28;20089;-81
2023/08/14 12:55:05;;;;;;;3.70;1.70;;;;;;;;;;5028470;28;20049;-81
2023/08/14 12:57:31;;;;;;;5.47;2.00;;;;;;;;;;5035992;28;20504;-81
2023/08/14 12:59:56;;;;;;;4.18;1.77;;;;;;;;;;5033880;28;20029;-82
2023/08/14 13:02:23;;;;;;;3.35;1.90;;;;;;;;;;5033992;28;20059;-81
2023/08/14 13:04:48;;;;;;;2.83;2.00;;;;;;;;;;5034408;28;20026;-81
2023/08/14 13:07:14;;;;;;;3.10;1.90;;;;;;;;;;5034209;28;20404;-82
2023/08/14 13:09:39;;;;;;;2.78;1.75;;;;;;;;;;5029797;28;20033;-81
2023/08/14 13:12:05;;;;;;;3.72;1.80;;;;;;;;;;5035008;28;20036;-82
2023/08/14 13:14:31;;;;;;;2.70;2.00;;;;;;;;;;5035850;28;20033;-82
2023/08/14 13:16:56;;;;;;;2.55;2.10;;;;;;;;;;5034950;28;20041;-83
2023/08/14 13:19:22;;;;;;;2.22;2.03;;;;;;;;;;5035675;28;20414;-81
2023/08/14 13:21:47;;;;;;;4.22;2.00;;;;;;;;;;5037039;28;20037;-87
2023/08/14 13:24:12;;;;;;;4.40;2.10;;;;;;;;;;5038303;28;20029;-86
2023/08/14 13:26:38;;;;;;;5.45;2.20;;;;;;;;;;5038383;28;20029;-87
2023/08/14 13:29:04;;;;;;;2.50;2.22;;;;;;;;;;5036929;28;20517;-85
2023/08/14 13:31:29;;;;;;;3.70;2.28;;;;;;;;;;5037997;28;20045;-85
2023/08/14 13:33:55;;;;;;;4.32;2.60;;;;;;;;;;5038639;28;20389;-80
2023/08/14 13:36:21;;;;;;;4.05;2.40;;;;;;;;;;5034524;28;20030;-81
2023/08/14 13:38:48;;;;;;;3.97;2.72;;;;;;;;;;5032402;28;20034;-82
2023/08/14 13:41:13;;;;;;;3.38;2.70;;;;;;;;;;5033582;28;20056;-82
2023/08/14 13:43:39;;;;;;;3.53;2.80;;;;;;;;;;5032663;28;20040;-81
2023/08/14 13:46:05;;;;;;;3.75;2.90;;;;;;;;;;5040322;28;20111;-81
2023/08/14 13:48:30;;;;;;;5.53;2.90;;;;;;;;;;5030917;28;20029;-81
2023/08/14 13:50:56;;;;;;;4.20;2.85;;;;;;;;;;5031693;28;20536;-83
2023/08/14 13:53:22;;;;;;;4.25;2.92;;;;;;;;;;5034417;28;20029;-82
2023/08/14 13:55:47;;;;;;;4.28;2.88;;;;;;;;;;5030978;28;20034;-83
2023/08/14 13:58:13;;;;;;;5.22;2.75;;;;;;;;;;5034547;28;20052;-82
2023/08/14 14:00:38;;;;;;;4.60;2.80;;;;;;;;;;5034415;28;20380;-84
2023/08/14 14:03:04;;;;;;;8.13;2.85;;;;;;;;;;5033861;28;20037;-82
2023/08/14 14:05:30;;;;;;;3.58;2.80;;;;;;;;;;5034045;28;20030;-83
2023/08/14 14:07:56;;;;;;;6.55;2.88;;;;;;;;;;5031255;28;20140;-82
2023/08/14 14:10:22;;;;;;;7.03;3.15;;;;;;;;;;5032286;28;20111;-83
2023/08/14 14:12:47;;;;;;;3.38;2.75;;;;;;;;;;5029847;28;20037;-81
2023/08/14 14:15:13;;;;;;;5.97;2.95;;;;;;;;;;5019646;28;20037;-84
2023/08/14 14:17:38;;;;;;;5.47;3.15;;;;;;;;;;5033763;28;20053;-86
2023/08/14 14:20:07;;;;;;;8.20;3.10;;;;;;;;;;5034886;28;20061;-84
2023/08/14 14:22:33;;;;;;;4.25;2.78;;;;;;;;;;5037338;28;20033;-85
2023/08/14 14:24:58;;;;;;;3.92;3.00;;;;;;;;;;5003767;28;1083489;-86
2023/08/14 14:27:24;;;;;;;6.45;2.95;;;;;;;;;;5040494;28;20129;-86
2023/08/14 14:29:49;;;;;;;6.72;3.20;;;;;;;;;;5038071;28;20040;-87
2023/08/14 14:32:15;;;;;;;3.65;2.90;;;;;;;;;;5039586;28;20033;-85
2023/08/14 14:34:40;;;;;;;5.32;3.08;;;;;;;;;;5035199;28;20037;-83
2023/08/14 14:37:06;;;;;;;4.15;2.90;;;;;;;;;;5035165;28;20559;-81
2023/08/14 14:39:31;;;;;;;5.05;2.97;;;;;;;;;;5034008;28;20035;-84